KRIC

Richmond International Airport

Richmond, Virginia, USA
METAR KRIC 212254Z 06003KT 10SM SCT085 BKN180 BKN300 28/23 A2976 RMK AO2 SLP081 T02830228
Observed Flight Rules
Jun-21 @ 22:54 UTC (an hour ago) Visual Flight Rules
Wind Visibility Clouds
60° at 3 knots 10 miles
  • Scattered at 8,500' AGL
  • Broken at 18,000' AGL
  • Broken at 30,000' AGL
Temperatures Readings
Current 28°C / 82°F
Dewpoint 23°C / 73°F
Humidity 74%
Altimeter 29.76" Hg
Pressure 1008.1 hPa
Elevation 50
METAR KRIC 212254Z 06003KT 10SM SCT085 BKN180 BKN300 28/23 A2976 RMK AO2 SLP081 T02830228
Observed Flight Rules
Jun-21 @ 22:54 UTC
(an hour ago)
VFR
Wind Visibility
60° at 3 knots 10 miles
Clouds
  • Scattered at 8,500' AGL
  • Broken at 18,000' AGL
  • Broken at 30,000' AGL
Temperature Dewpoint
28°C / 82°F 23°C / 73°F
Humidity Altimeter Pressure
74% 29.76" Hg 1008.1 hPa